Time;durP1;ratioP1;P1;durP2;ratioP2;P2;SDS_P1;SDS_P2;PMS_P1;PMS_P2;Temp;Humidity;BMP_temperature;BMP_pressure;BME280_temperature;BME280_humidity;BME280_pressure;Samples;Min_cycle;Max_cycle;Signal;HPM_P1;HPM_P2
2023/01/13 00:01:15;;;;;;;3.37;1.50;;;;;;;0.49;100.00;105857.41;1486821;96;21067;-84
2023/01/13 00:03:45;;;;;;;2.45;1.57;;;;;;;0.52;100.00;105907.57;1486463;95;21058;-84
2023/01/13 00:06:17;;;;;;;2.52;1.70;;;;;;;0.51;100.00;105878.89;1486846;96;21078;-85
2023/01/13 00:08:50;;;;;;;1.87;1.50;;;;;;;0.52;100.00;105912.77;1488260;95;20975;-85
2023/01/13 00:11:20;;;;;;;2.85;1.47;;;;;;;0.53;100.00;105910.66;1479316;97;20980;-84
2023/01/13 00:14:25;;;;;;;;;;;;;;;;;;;;;
2023/01/13 00:20:16;;;;;;;3.05;1.42;;;;;;;0.47;100.00;105809.92;1440314;97;21137;-85
2023/01/13 00:22:44;;;;;;;2.05;1.27;;;;;;;0.50;100.00;105849.80;1450677;98;21080;-84
2023/01/13 00:25:14;;;;;;;1.92;1.40;;;;;;;0.53;100.00;105889.89;1433254;99;20996;-85
2023/01/13 00:27:43;;;;;;;2.33;1.40;;;;;;;0.55;100.00;105906.02;1432778;99;21054;-85
2023/01/13 00:30:21;;;;;;;2.10;1.55;;;;;;;0.55;100.00;105916.41;1451033;98;21012;-84
2023/01/13 00:33:00;;;;;;;3.45;1.37;;;;;;;0.55;100.00;105895.63;1448577;98;21039;-84
2023/01/13 00:38:41;;;;;;;;;;;;;;;;;;;;;
2023/01/13 00:45:12;;;;;;;3.25;1.80;;;;;;;0.52;100.00;105829.70;1365102;101;21073;-85
2023/01/13 00:47:41;;;;;;;2.92;1.92;;;;;;;0.48;100.00;105755.99;1364842;105;21081;-84
2023/01/13 00:50:11;;;;;;;2.37;1.60;;;;;;;0.50;100.00;105797.88;1360601;105;21199;-84
2023/01/13 00:52:41;;;;;;;1.87;1.22;;;;;;;0.45;100.00;105695.22;1346532;98;21593;-84
2023/01/13 00:55:09;;;;;;;2.67;1.60;;;;;;;0.46;100.00;105713.64;1452062;98;21035;-84
2023/01/13 00:57:40;;;;;;;4.50;1.55;;;;;;;0.48;100.00;105724.84;1469335;98;21043;-85
2023/01/13 01:00:11;;;;;;;5.62;1.98;;;;;;;0.50;100.00;105751.16;1469060;98;21084;-85
2023/01/13 01:02:40;;;;;;;2.58;1.65;;;;;;;0.51;100.00;105769.86;1469333;98;21034;-84
2023/01/13 01:05:09;;;;;;;2.98;1.70;;;;;;;0.55;100.00;105817.77;1469250;98;21090;-85
2023/01/13 01:07:38;;;;;;;2.47;1.45;;;;;;;0.48;100.00;105688.50;1488340;96;21034;-85
2023/01/13 01:10:07;;;;;;;2.67;1.67;;;;;;;0.46;100.00;105646.14;1491367;96;21071;-85
2023/01/13 01:12:40;;;;;;;2.02;1.57;;;;;;;0.48;100.00;105678.13;1490913;96;21092;-85
2023/01/13 01:15:08;;;;;;;1.90;1.70;;;;;;;0.51;100.00;105712.75;1536137;91;21053;-85
2023/01/13 01:17:37;;;;;;;1.82;1.62;;;;;;;0.51;100.00;105712.75;1613939;84;20972;-85
2023/01/13 01:20:06;;;;;;;2.30;1.30;;;;;;;0.54;100.00;105747.61;1692096;84;20972;-85
2023/01/13 01:31:49;;;;;;;2.62;1.52;;;;;;;0.55;100.00;105719.14;1438158;98;21584;-84
2023/01/13 01:41:34;;;;;;;3.45;1.92;;;;;;;0.54;100.00;105690.52;1354999;104;21628;-85
2023/01/13 01:44:45;;;;;;;2.70;1.90;;;;;;;0.49;100.00;105613.42;1334761;107;21175;-85
2023/01/13 01:47:23;;;;;;;2.70;1.72;;;;;;;0.48;100.00;105584.67;1342972;107;21620;-85
2023/01/13 01:53:26;;;;;;;2.77;1.85;;;;;;;0.49;100.00;105587.47;1346239;106;21090;-85
2023/01/13 01:55:56;;;;;;;2.17;1.90;;;;;;;0.45;100.00;105518.71;1331078;107;21148;-85
2023/01/13 01:58:40;;;;;;;2.33;1.62;;;;;;;0.47;100.00;105539.95;1349248;106;21595;-85
2023/01/13 02:01:13;;;;;;;2.55;1.80;;;;;;;0.49;100.00;105577.09;1333826;106;21129;-84
2023/01/13 02:03:46;;;;;;;2.70;2.00;;;;;;;0.49;100.00;105556.31;1487958;95;21025;-85
2023/01/13 02:06:15;;;;;;;2.30;1.70;;;;;;;0.48;100.00;105548.34;1516363;95;21054;-84
2023/01/13 02:08:44;;;;;;;2.60;1.70;;;;;;;0.51;100.00;105567.41;1524512;93;20992;-85
2023/01/13 02:19:02;;;;;;;2.72;1.62;;;;;;;0.48;100.00;105506.81;1519045;94;21028;-84
2023/01/13 02:25:55;;;;;;;1.35;1.25;;;;;;;0.42;100.00;105386.63;1544429;93;21488;-84
2023/01/13 02:32:48;;;;;;;1.62;1.17;;;;;;;0.39;100.00;105325.47;1552904;87;20990;-85
2023/01/13 02:39:38;;;;;;;1.45;1.10;;;;;;;0.38;100.00;105285.75;1636506;88;20983;-84
2023/01/13 02:46:13;;;;;;;1.60;1.00;;;;;;;0.36;100.00;105248.56;1640937;84;21559;-84
2023/01/13 02:52:44;;;;;;;1.20;1.10;;;;;;;0.37;100.00;105256.79;1729186;83;21373;-85
2023/01/13 02:55:22;;;;;;;1.00;0.85;;;;;;;0.31;100.00;105138.92;1698814;83;20882;-85
2023/01/13 02:57:53;;;;;;;1.17;1.00;;;;;;;0.32;100.00;105163.20;1719937;83;20937;-84
2023/01/13 03:00:22;;;;;;;1.22;0.80;;;;;;;0.31;100.00;105138.92;1720794;83;20989;-85
2023/01/13 03:06:54;;;;;;;0.80;0.80;;;;;;;0.36;100.00;105201.84;1720929;83;20934;-85
2023/01/13 03:13:49;;;;;;;1.52;1.00;;;;;;;0.39;100.00;105247.59;1720917;83;20949;-85
2023/01/13 03:19:50;;;;;;;1.45;1.00;;;;;;;0.28;100.00;105045.61;1731587;83;20100;-84
2023/01/13 03:26:10;;;;;;;1.42;0.90;;;;;;;0.26;100.00;105028.82;1731240;83;20919;-85
2023/01/13 03:32:45;;;;;;;;;;;;;;;0.25;100.00;104999.65;1733810;83;20959;-84
2023/01/13 03:39:16;;;;;;;0.80;0.60;;;;;;;0.24;100.00;104951.21;1731626;83;20923;-84
2023/01/13 03:45:33;;;;;;;1.05;0.60;;;;;;;0.21;100.00;104904.55;1731378;83;20922;-85
2023/01/13 03:52:04;;;;;;;0.98;0.78;;;;;;;0.25;100.00;104970.05;1731624;83;20930;-85
2023/01/13 03:58:37;;;;;;;2.10;0.80;;;;;;;0.27;100.00;104995.70;1731588;83;21466;-85
2023/01/13 04:05:16;;;;;;;0.80;0.42;;;;;;;0.36;100.00;105139.56;1731630;83;20919;-84
2023/01/13 04:11:43;;;;;;;0.82;0.60;;;;;;;0.44;100.00;105272.67;1731655;83;20954;-84
2023/01/13 04:21:13;;;;;;;0.70;0.60;;;;;;;0.39;100.00;105148.98;1691738;85;20105;-85
2023/01/13 04:27:40;;;;;;;0.60;0.57;;;;;;;0.38;100.00;105119.66;1691756;85;21451;-84
2023/01/13 04:34:25;;;;;;;;;;;;;;;;;;;;;
2023/01/13 04:47:34;;;;;;;1.02;0.50;;;;;;;0.54;100.00;105389.50;1573813;90;21566;-85
2023/01/13 04:53:50;;;;;;;;;;;;;;;0.53;100.00;105407.18;1575980;91;20969;-84
2023/01/13 05:00:19;;;;;;;1.05;0.35;;;;;;;0.50;100.00;105346.31;1573777;90;21473;-85
2023/01/13 05:06:46;;;;;;;0.45;0.40;;;;;;;0.51;100.00;105365.02;1573808;90;21499;-85
2023/01/13 05:09:14;;;;;;;1.87;1.30;;;;;;;0.50;100.00;105367.05;1562704;92;20983;-85
2023/01/13 05:20:28;;;;;;;1.62;0.85;;;;;;;0.53;100.00;105396.80;1604495;89;21089;-85
2023/01/13 05:25:47;;;;;;;1.57;1.02;;;;;;;0.58;100.00;105493.91;1604300;89;21546;-85
2023/01/13 05:28:16;;;;;;;0.65;0.50;;;;;;;0.59;100.00;105519.88;1582776;89;20976;-85
2023/01/13 05:30:51;;;;;;;1.15;0.80;;;;;;;0.61;100.00;105541.71;1603516;89;21003;-85
2023/01/13 05:33:20;;;;;;;1.25;0.70;;;;;;;0.61;100.00;105546.89;1603461;89;20961;-85
2023/01/13 05:35:49;;;;;;;0.80;0.50;;;;;;;0.59;100.00;105525.06;1603417;89;20993;-84
2023/01/13 05:38:17;;;;;;;0.45;0.40;;;;;;;0.59;100.00;105535.45;1603720;89;20970;-85
2023/01/13 05:43:34;;;;;;;0.72;0.30;;;;;;;0.64;100.00;105622.30;1661338;86;21423;-87
2023/01/13 05:46:10;;;;;;;1.25;0.30;;;;;;;0.65;100.00;105645.52;1650750;86;20986;-86
2023/01/13 05:48:46;;;;;;;0.30;0.30;;;;;;;0.64;100.00;105632.66;1661784;86;21086;-88
2023/01/13 05:51:26;;;;;;;1.02;0.20;;;;;;;0.70;100.00;105736.62;1661902;86;20966;-87
2023/01/13 05:53:49;;;;;;;0.17;0.17;;;;;;;0.74;100.00;105798.25;1656009;86;21451;-86
2023/01/13 05:56:36;;;;;;;;;;;;;;;;;;;;;
2023/01/13 06:03:14;;;;;;;0.25;0.20;;;;;;;0.73;100.00;105795.94;1561566;89;20994;-87
2023/01/13 06:05:44;;;;;;;0.90;0.30;;;;;;;0.74;100.00;105813.81;1591047;90;20974;-86
2023/01/13 06:08:12;;;;;;;0.20;0.20;;;;;;;0.71;100.00;105785.69;1541720;92;21498;-86
2023/01/13 06:10:41;;;;;;;0.40;0.30;;;;;;;0.72;100.00;105788.05;1591297;90;21004;-86
2023/01/13 06:13:10;;;;;;;1.10;0.30;;;;;;;0.71;100.00;105785.69;1561571;92;21054;-86
2023/01/13 06:15:39;;;;;;;0.50;0.40;;;;;;;0.73;100.00;105816.70;1591285;89;20993;-86
2023/01/13 06:18:10;;;;;;;0.33;0.30;;;;;;;0.74;100.00;105829.39;1561490;91;21006;-86
2023/01/13 06:20:40;;;;;;;0.33;0.30;;;;;;;0.76;100.00;105881.41;1556469;92;21087;-86
2023/01/13 06:23:11;;;;;;;0.40;0.30;;;;;;;0.78;100.00;105909.25;1515542;92;21074;-85
2023/01/13 06:25:50;;;;;;;2.72;1.98;;;;;;;0.78;100.00;105909.25;1582716;91;20998;-86
2023/01/13 06:28:19;;;;;;;2.08;1.60;;;;;;;0.74;100.00;105844.95;1555586;92;21066;-86
2023/01/13 06:30:50;;;;;;;1.10;1.00;;;;;;;0.77;100.00;105894.41;1582690;91;20983;-86
2023/01/13 06:33:23;;;;;;;1.72;0.80;;;;;;;0.83;100.00;105999.04;1555236;92;21001;-87
2023/01/13 06:35:56;;;;;;;0.78;0.50;;;;;;;0.86;100.00;106053.13;1590414;89;21043;-86
2023/01/13 06:38:27;;;;;;;0.68;0.62;;;;;;;0.86;100.00;106037.56;1618285;89;20975;-86
2023/01/13 06:40:56;;;;;;;0.82;0.55;;;;;;;0.84;100.00;106011.52;1618346;89;21006;-86
2023/01/13 06:43:25;;;;;;;0.40;0.30;;;;;;;0.82;100.00;105996.53;1703928;83;20938;-86
2023/01/13 06:45:56;;;;;;;0.55;0.50;;;;;;;0.80;100.00;105981.84;1698310;83;21007;-86
2023/01/13 06:48:33;;;;;;;0.40;0.40;;;;;;;0.83;100.00;106030.17;1690819;85;20959;-85
2023/01/13 06:51:05;;;;;;;0.78;0.60;;;;;;;0.88;100.00;106083.16;1663262;86;21003;-86
2023/01/13 06:53:34;;;;;;;0.60;0.50;;;;;;;0.91;100.00;106126.23;1701307;84;21004;-86
2023/01/13 06:56:03;;;;;;;1.87;0.53;;;;;;;0.93;100.00;106156.45;1701228;84;20968;-86
2023/01/13 06:58:32;;;;;;;1.15;0.60;;;;;;;0.89;100.00;106101.13;1701217;84;20960;-87
2023/01/13 07:01:07;;;;;;;1.10;0.80;;;;;;;0.87;100.00;106044.81;1701223;84;21048;-86
2023/01/13 07:03:49;;;;;;;;;;;;;;;0.86;100.00;106047.94;1673616;84;20984;-86
2023/01/13 07:06:31;;;;;;;0.68;0.50;;;;;;;0.87;100.00;106065.56;1701374;84;20138;-87
2023/01/13 07:08:58;;;;;;;0.90;0.60;;;;;;;0.90;100.00;106092.75;1701251;84;20999;-89
2023/01/13 07:11:27;;;;;;;0.90;0.70;;;;;;;0.90;100.00;106108.30;1669886;84;20963;-87
2023/01/13 07:16:45;;;;;;;1.27;0.90;;;;;;;0.93;100.00;106161.63;1675075;84;20979;-87
2023/01/13 07:19:22;;;;;;;1.62;1.12;;;;;;;0.92;100.00;106148.94;1701527;84;21023;-86
2023/01/13 07:21:54;;;;;;;1.70;1.20;;;;;;;0.93;100.00;106161.63;1700335;84;21016;-86
2023/01/13 07:24:25;;;;;;;1.02;0.90;;;;;;;0.95;100.00;106196.61;1684852;84;21016;-86
2023/01/13 07:26:59;;;;;;;1.40;0.82;;;;;;;0.96;100.00;106209.23;1668604;85;20980;-87
2023/01/13 07:29:29;;;;;;;2.70;0.82;;;;;;;0.95;100.00;106196.61;1644798;85;20968;-86
2023/01/13 07:31:58;;;;;;;1.20;0.90;;;;;;;0.98;100.00;106267.77;1691663;85;21155;-87
2023/01/13 07:34:26;;;;;;;1.37;0.62;;;;;;;0.99;100.00;106274.79;1722309;83;20935;-87
2023/01/13 07:36:55;;;;;;;1.95;0.68;;;;;;;1.00;100.00;106271.41;1720957;83;20916;-85
2023/01/13 07:39:25;;;;;;;0.70;0.70;;;;;;;1.06;100.00;106382.20;1696661;83;21376;-87
2023/01/13 07:44:41;;;;;;;0.70;0.60;;;;;;;1.15;0.00;106545.49;1720770;83;20943;-86
2023/01/13 07:47:10;;;;;;;1.00;0.65;;;;;;;1.21;0.00;106638.92;1720913;83;20947;-86
2023/01/13 07:49:39;;;;;;;1.72;0.75;;;;;;;1.20;0.00;106631.27;1720878;83;20943;-86
2023/01/13 07:52:08;;;;;;;1.95;1.10;;;;;;;1.20;0.00;106641.66;1720997;83;20915;-86
2023/01/13 07:54:56;;;;;;;0.85;0.82;;;;;;;1.24;0.00;106705.59;1720669;83;20927;-85
2023/01/13 07:57:22;;;;;;;1.07;0.98;;;;;;;1.23;0.00;106703.90;1720029;83;20948;-87
2023/01/13 07:59:50;;;;;;;1.17;0.90;;;;;;;1.26;0.00;106729.33;1722936;83;20991;-86
2023/01/13 08:02:19;;;;;;;1.80;1.12;;;;;;;1.25;0.00;106707.27;1720962;83;20924;-87
2023/01/13 08:04:49;;;;;;;1.10;1.00;;;;;;;1.28;0.00;106763.36;1721007;83;20983;-86
2023/01/13 08:07:19;;;;;;;1.50;1.00;;;;;;;1.25;0.00;106722.83;1720976;83;20962;-85
2023/01/13 08:09:52;;;;;;;2.15;1.02;;;;;;;1.23;0.00;106703.90;1696684;83;20942;-86
2023/01/13 08:15:08;;;;;;;1.70;1.40;;;;;;;1.29;0.00;106796.41;1721133;83;20971;-85
2023/01/13 08:17:36;;;;;;;2.17;1.17;;;;;;;1.30;0.00;106802.84;1720914;83;21010;-86
2023/01/13 08:20:05;;;;;;;1.35;1.12;;;;;;;1.33;0.00;106848.61;1720902;83;20957;-84
2023/01/13 08:22:35;;;;;;;1.65;1.10;;;;;;;1.31;0.00;106830.34;1718953;83;20991;-85
2023/01/13 08:25:06;;;;;;;1.40;1.10;;;;;;;1.32;0.00;106847.08;1719203;83;21034;-85
2023/01/13 08:27:35;;;;;;;1.42;1.00;;;;;;;1.34;0.00;106882.39;1718570;83;20971;-86
2023/01/13 08:30:05;;;;;;;1.02;0.90;;;;;;;1.34;0.00;106860.50;1719101;82;20948;-87
2023/01/13 08:32:34;;;;;;;1.05;0.90;;;;;;;1.35;0.00;106873.14;1719206;83;20991;-85
2023/01/13 08:35:03;;;;;;;1.15;0.90;;;;;;;1.39;0.00;106951.42;1719191;83;20987;-85
2023/01/13 08:37:37;;;;;;;1.17;1.05;;;;;;;1.47;0.00;107070.13;1719187;83;21043;-87
2023/01/13 08:40:07;;;;;;;1.07;0.98;;;;;;;1.47;0.00;107080.50;1719955;83;21427;-85
2023/01/13 08:42:36;;;;;;;1.27;1.07;;;;;;;1.45;0.00;107067.61;1697083;83;20943;-85
2023/01/13 08:45:06;;;;;;;3.20;1.40;;;;;;;1.49;0.00;107124.41;1719172;83;20943;-85
2023/01/13 08:51:33;;;;;;;1.65;1.30;;;;;;;1.53;0.00;107180.56;1719204;83;20927;-87
2023/01/13 08:54:03;;;;;;;1.37;1.00;;;;;;;1.57;0.00;107252.68;1719086;83;20971;-86
2023/01/13 08:56:31;;;;;;;1.50;1.25;;;;;;;1.61;0.00;107339.59;1719163;83;21000;-86
2023/01/13 08:59:09;;;;;;;1.50;1.30;;;;;;;1.68;0.00;107417.75;1718162;83;21435;-86
2023/01/13 09:01:38;;;;;;;1.40;1.07;;;;;;;1.72;0.00;107467.22;1716803;83;21412;-85
2023/01/13 09:04:22;;;;;;;1.75;1.10;;;;;;;1.80;0.00;107586.92;1719031;83;20975;-87
2023/01/13 09:06:54;;;;;;;1.50;1.32;;;;;;;1.83;0.00;107622.17;1719184;83;20924;-87
2023/01/13 09:09:24;;;;;;;2.08;1.27;;;;;;;1.83;0.00;107635.22;1719277;83;20992;-88
2023/01/13 09:14:39;;;;;;;1.82;1.20;;;;;;;1.75;0.00;107552.98;1719278;83;20940;-86
2023/01/13 09:17:08;;;;;;;1.32;1.17;;;;;;;1.74;0.00;107546.41;1719179;83;21015;-86
2023/01/13 09:19:37;;;;;;;1.50;1.32;;;;;;;1.73;0.00;107478.66;1719132;83;20924;-87
2023/01/13 09:22:07;;;;;;;2.65;1.75;;;;;;;1.70;0.00;107486.73;1719942;82;20960;-86
2023/01/13 09:24:37;;;;;;;2.27;1.62;;;;;;;1.70;0.00;107512.64;1720993;83;20939;-87
2023/01/13 09:27:09;;;;;;;4.17;2.70;;;;;;;1.73;0.00;107546.01;1720337;83;20927;-89
2023/01/13 09:29:40;;;;;;;3.22;2.20;;;;;;;1.75;0.00;107594.45;1719939;83;21451;-86
2023/01/13 09:32:13;;;;;;;2.42;1.37;;;;;;;1.77;0.00;107611.30;1720682;83;21004;-86
2023/01/13 09:35:01;;;;;;;2.30;1.55;;;;;;;1.78;0.00;107627.48;1720643;83;21003;-88
2023/01/13 09:37:37;;;;;;;2.40;1.55;;;;;;;1.84;0.00;107676.86;1724107;83;20947;-86
2023/01/13 09:40:11;;;;;;;1.67;1.40;;;;;;;1.91;0.00;107762.89;1720534;83;21024;-87
2023/01/13 09:45:52;;;;;;;1.98;1.40;;;;;;;2.03;0.00;107936.55;1720584;83;20900;-87
2023/01/13 09:48:28;;;;;;;2.60;1.37;;;;;;;2.16;0.00;108086.97;1720232;83;20974;-86
2023/01/13 09:51:15;;;;;;;2.47;1.00;;;;;;;2.27;0.00;108229.34;1720594;83;21047;-87
2023/01/13 09:53:59;;;;;;;2.00;1.30;;;;;;;2.40;0.00;108379.11;1720805;83;20979;-88
2023/01/13 09:56:27;;;;;;;3.45;1.67;;;;;;;2.49;0.00;108486.64;1720404;83;21046;-86
2023/01/13 09:59:01;;;;;;;3.00;1.10;;;;;;;2.57;0.00;108573.14;1720668;83;20943;-86
2023/01/13 10:01:46;;;;;;;3.83;1.80;;;;;;;2.52;0.00;108515.05;1720625;83;21003;-85
2023/01/13 10:04:19;;;;;;;1.67;1.00;;;;;;;2.53;0.00;108540.39;1661099;85;21494;-87
2023/01/13 10:07:09;;;;;;;2.45;1.30;;;;;;;2.46;0.00;108467.83;1661529;85;20975;-85
2023/01/13 10:09:49;;;;;;;1.95;1.45;;;;;;;2.42;0.00;108431.66;1614405;86;20956;-85
2023/01/13 10:15:22;;;;;;;4.40;1.80;;;;;;;2.40;0.00;108398.94;1661830;85;20967;-90
2023/01/13 10:18:39;;;;;;;2.42;1.60;;;;;;;2.41;0.00;108440.05;1661707;85;20967;-89
2023/01/13 10:27:56;;;;;;;3.12;1.52;;;;;;;2.31;0.00;108279.66;1506706;95;21540;-92
2023/01/13 10:30:40;;;;;;;2.67;1.20;;;;;;;2.26;0.00;108229.97;1509129;95;21042;-89
2023/01/13 10:33:23;;;;;;;1.77;1.20;;;;;;;2.20;0.00;108163.88;1507558;94;21059;-88
2023/01/13 10:36:08;;;;;;;4.85;2.80;;;;;;;2.21;0.00;108168.86;1490431;95;21039;-88
2023/01/13 10:38:38;;;;;;;3.85;2.33;;;;;;;2.15;0.00;108086.73;1508144;94;21076;-90
2023/01/13 10:41:20;;;;;;;1.57;1.15;;;;;;;2.13;0.00;108035.40;1531432;94;21030;-89
2023/01/13 10:44:05;;;;;;;2.58;1.20;;;;;;;2.06;0.00;107936.57;1511547;94;21051;-88
2023/01/13 10:46:37;;;;;;;2.67;1.20;;;;;;;1.99;0.00;107853.29;1513146;94;21038;-95
2023/01/13 10:49:40;;;;;;;2.50;1.10;;;;;;;1.96;0.00;107808.24;1528551;92;21018;-91
2023/01/13 10:52:53;;;;;;;1.47;1.00;;;;;;;2.05;0.00;107931.61;1511641;94;21492;-90
2023/01/13 10:55:45;;;;;;;5.03;1.87;;;;;;;2.14;0.00;108030.17;1455708;95;21529;-90
2023/01/13 10:58:27;;;;;;;2.47;1.45;;;;;;;2.07;0.00;107942.47;1587703;87;21532;-91
2023/01/13 11:01:49;;;;;;;2.98;2.00;;;;;;;2.00;0.00;107858.69;1557844;91;21548;-91
2023/01/13 11:04:02;;;;;;;2.70;1.42;;;;;;;1.92;0.00;107737.03;1567018;91;21521;-91
2023/01/13 11:06:45;;;;;;;1.98;1.65;;;;;;;1.87;0.00;107677.99;1580911;89;21510;-90
2023/01/13 11:09:21;;;;;;;4.20;2.15;;;;;;;1.96;0.00;107790.14;1539633;93;21006;-91
2023/01/13 11:12:02;;;;;;;3.45;2.40;;;;;;;2.15;0.00;108003.91;1537320;92;21012;-89
2023/01/13 11:14:46;;;;;;;3.85;2.62;;;;;;;2.29;0.00;108213.14;1527067;94;21587;-90
2023/01/13 11:17:44;;;;;;;6.78;4.15;;;;;;;2.38;0.00;108312.93;1504278;94;21528;-93
2023/01/13 11:20:32;;;;;;;3.77;2.83;;;;;;;2.57;0.00;108531.77;1497670;94;21006;-89
2023/01/13 11:23:04;;;;;;;2.83;1.47;;;;;;;2.75;0.00;108765.29;1452571;96;21565;-90
2023/01/13 11:25:54;;;;;;;2.35;1.40;;;;;;;2.87;0.00;108914.63;1493126;95;21105;-93
2023/01/13 11:29:04;;;;;;;1.72;1.17;;;;;;;3.02;0.00;109096.47;1461061;98;21648;-91
2023/01/13 11:35:41;;;;;;;1.85;1.00;;;;;;;3.06;0.00;109125.39;1561941;88;20986;-91
2023/01/13 11:38:58;;;;;;;3.10;1.20;;;;;;;2.86;0.00;108869.56;1554161;92;21067;-92
2023/01/13 11:42:19;;;;;;;1.60;1.10;;;;;;;2.83;0.00;108816.98;1541015;93;21059;-92
2023/01/13 11:55:35;;;;;;;;;;;;;;;2.80;0.00;108867.38;1547673;89;21537;-90
2023/01/13 11:58:22;;;;;;;;;;;;;;;2.91;0.00;109000.62;1522059;92;20128;-95
2023/01/13 12:01:10;;;;;;;3.98;1.75;;;;;;;3.00;0.00;109073.86;1545412;91;20115;-86
2023/01/13 12:03:52;;;;;;;1.55;1.10;;;;;;;2.97;0.00;109068.95;1545465;91;21042;-89
2023/01/13 12:07:01;;;;;;;2.60;1.27;;;;;;;2.97;0.00;109068.95;1617400;88;21003;-91
2023/01/13 12:10:12;;;;;;;3.08;1.45;;;;;;;2.95;0.00;109061.38;1640492;85;20987;-91
2023/01/13 12:13:23;;;;;;;2.00;1.02;;;;;;;2.92;0.00;109019.72;1701763;84;21014;-90
2023/01/13 12:16:09;;;;;;;2.45;1.45;;;;;;;2.91;0.00;108979.94;1647625;86;21472;-87
2023/01/13 12:19:13;;;;;;;;;;;;;;;;;;;;;
2023/01/13 12:21:44;;;;;;;1.40;0.85;;;;;;;2.90;0.00;108955.38;1627588;88;20991;-88
2023/01/13 12:24:50;;;;;;;3.55;1.20;;;;;;;2.91;0.00;108964.44;1579046;90;21000;-87
2023/01/13 12:31:24;;;;;;;2.83;1.35;;;;;;;2.79;0.00;108842.84;1611206;88;21098;-92
2023/01/13 12:34:13;;;;;;;3.33;1.57;;;;;;;2.61;0.00;108600.42;1605530;89;20990;-92
2023/01/13 12:37:44;;;;;;;;;;;;;;;;;;;;;
2023/01/13 12:40:45;;;;;;;2.10;1.42;;;;;;;2.60;0.00;108611.45;1529435;94;21009;-94
2023/01/13 12:46:26;;;;;;;4.70;2.17;;;;;;;2.58;0.00;108587.46;1549353;91;20982;-96
2023/01/13 12:49:11;;;;;;;2.70;1.30;;;;;;;2.52;0.00;108535.75;1575932;91;21553;-91
2023/01/13 12:52:12;;;;;;;;;;;;;;;;;;;;;
2023/01/13 12:58:35;;;;;;;;;;;;;;;2.24;0.00;108173.30;1524836;91;570704;-87
2023/01/13 13:05:16;;;;;;;5.05;2.20;;;;;;;2.17;0.00;108099.58;1527234;91;21000;-86
2023/01/13 13:07:49;;;;;;;4.25;2.30;;;;;;;2.12;0.00;108019.91;1498894;94;21010;-86
2023/01/13 13:14:19;;;;;;;2.02;1.55;;;;;;;2.01;0.00;107863.73;1546414;93;21491;-86
2023/01/13 13:21:07;;;;;;;1.57;1.30;;;;;;;1.79;0.00;107544.88;1546749;92;21024;-86
2023/01/13 13:23:58;;;;;;;3.37;1.80;;;;;;;1.71;0.00;107507.91;1546799;92;20992;-86
2023/01/13 13:26:45;;;;;;;2.40;1.90;;;;;;;1.71;0.00;107546.76;1546745;93;21052;-86
2023/01/13 13:29:50;;;;;;;3.08;1.72;;;;;;;1.75;0.00;107604.12;1546856;93;21028;-86
2023/01/13 13:36:39;;;;;;;9.10;4.55;;;;;;;1.82;0.00;107702.37;1596884;90;21043;-86
2023/01/13 13:49:52;;;;;;;5.70;2.22;;;;;;;1.87;0.00;107719.44;1623037;85;21028;-87
2023/01/13 13:56:19;;;;;;;4.78;2.05;;;;;;;1.76;0.00;107607.73;1624885;88;20970;-87
2023/01/13 14:03:08;;;;;;;2.67;1.67;;;;;;;1.59;0.00;107399.82;1624761;88;20954;-87
2023/01/13 14:09:44;;;;;;;4.12;1.72;;;;;;;1.34;0.00;106996.44;1624745;88;20963;-87
2023/01/13 14:12:24;;;;;;;2.45;1.47;;;;;;;1.23;0.00;106838.70;1623936;88;21474;-87
2023/01/13 14:15:04;;;;;;;6.15;2.65;;;;;;;1.21;0.00;106815.22;1624729;88;20960;-87
2023/01/13 14:17:34;;;;;;;4.12;1.85;;;;;;;1.11;100.00;106634.88;1606051;88;20998;-87
2023/01/13 14:20:12;;;;;;;3.92;2.20;;;;;;;1.09;100.00;106631.30;1606346;88;21007;-87
2023/01/13 14:22:49;;;;;;;5.12;2.50;;;;;;;1.06;100.00;106589.66;1623751;88;20974;-87
2023/01/13 14:29:22;;;;;;;6.78;2.25;;;;;;;0.86;100.00;106302.15;1624743;88;20987;-87
2023/01/13 14:36:20;;;;;;;4.37;1.50;;;;;;;0.60;100.00;105881.67;1624736;88;20947;-86
2023/01/13 14:42:57;;;;;;;6.15;1.98;;;;;;;0.33;100.00;105436.27;1624725;88;21024;-87
2023/01/13 14:49:38;;;;;;;3.15;1.95;;;;;;;0.31;100.00;105388.13;1624717;88;20998;-86
2023/01/13 14:52:18;;;;;;;5.37;2.50;;;;;;;0.27;100.00;105339.37;1650069;86;21040;-86
2023/01/13 14:58:50;;;;;;;5.22;2.62;;;;;;;0.27;100.00;105359.14;1656927;87;20912;-86
2023/01/13 15:05:22;;;;;;;7.17;2.90;;;;;;;0.22;100.00;105297.31;1657025;87;20955;-86
2023/01/13 15:08:04;;;;;;;7.55;2.87;;;;;;;0.20;100.00;105259.51;1656902;87;20924;-87
2023/01/13 15:10:40;;;;;;;8.20;3.60;;;;;;;0.11;100.00;105113.25;1656872;86;20992;-86
2023/01/13 15:16:23;;;;;;;5.78;2.70;;;;;;;-0.05;100.00;104846.47;1637691;86;21455;-87
2023/01/13 15:18:55;;;;;;;8.35;3.12;;;;;;;-0.15;100.00;104671.72;1656907;87;20979;-86
2023/01/13 15:21:38;;;;;;;5.83;2.30;;;;;;;-0.23;100.00;104534.45;1655709;87;20983;-91
2023/01/13 15:24:08;;;;;;;6.00;2.70;;;;;;;-0.25;100.00;104485.11;1657002;86;20900;-87
2023/01/13 15:26:38;;;;;;;7.70;3.22;;;;;;;-0.30;100.00;104396.27;1656288;86;21067;-90
2023/01/13 15:29:11;;;;;;;5.40;2.98;;;;;;;-0.39;100.00;104241.17;1657275;86;20924;-91
2023/01/13 15:31:43;;;;;;;5.35;3.20;;;;;;;-0.42;100.00;104206.48;1638401;87;20979;-88
2023/01/13 15:34:13;;;;;;;5.83;2.67;;;;;;;-0.34;100.00;104347.30;1656771;85;21026;-92
2023/01/13 15:36:46;;;;;;;4.97;2.27;;;;;;;-0.31;100.00;104417.92;1657055;86;20935;-86
2023/01/13 15:39:16;;;;;;;4.05;2.50;;;;;;;-0.30;100.00;104427.44;1657242;86;20932;-87
2023/01/13 15:47:25;;;;;;;5.62;2.40;;;;;;;-0.25;100.00;104526.11;1656399;87;21411;-92
2023/01/13 15:49:55;;;;;;;8.90;3.55;;;;;;;-0.23;100.00;104581.22;1656392;86;20960;-87
2023/01/13 15:52:27;;;;;;;4.78;2.15;;;;;;;-0.18;100.00;104649.38;1656677;86;20979;-92
2023/01/13 15:54:57;;;;;;;6.72;2.80;;;;;;;-0.15;100.00;104703.48;1638424;87;20931;-86
2023/01/13 15:57:37;;;;;;;5.72;3.22;;;;;;;-0.14;100.00;104717.89;1657007;86;21471;-87
2023/01/13 16:00:26;;;;;;;4.40;1.90;;;;;;;-0.13;100.00;104758.23;1637428;87;21475;-91
2023/01/13 16:02:49;;;;;;;4.05;1.90;;;;;;;-0.15;100.00;104708.67;1655864;86;20959;-89
2023/01/13 16:05:27;;;;;;;6.42;2.30;;;;;;;-0.17;100.00;104674.23;1656217;86;21383;-90
2023/01/13 16:07:59;;;;;;;3.52;2.05;;;;;;;-0.24;100.00;104577.06;1657037;86;20979;-92
2023/01/13 16:10:29;;;;;;;3.67;2.30;;;;;;;-0.25;100.00;104562.48;1617059;87;21019;-89
2023/01/13 16:13:00;;;;;;;6.40;3.02;;;;;;;-0.25;100.00;104567.69;1638471;87;20927;-88
2023/01/13 16:15:29;;;;;;;3.05;2.00;;;;;;;-0.29;100.00;104483.30;1656937;86;20988;-87
2023/01/13 16:18:02;;;;;;;4.92;2.45;;;;;;;-0.29;100.00;104478.08;1638552;87;20910;-93
2023/01/13 16:20:31;;;;;;;3.60;2.10;;;;;;;-0.32;100.00;104439.16;1657035;87;20995;-85
2023/01/13 16:23:02;;;;;;;9.55;3.45;;;;;;;-0.42;100.00;104248.72;1656983;87;20924;-88
2023/01/13 16:25:31;;;;;;;5.00;2.27;;;;;;;-0.50;100.00;104107.85;1657012;86;20968;-86
2023/01/13 16:28:00;;;;;;;4.03;2.15;;;;;;;-0.60;100.00;103909.22;1657397;87;20996;-86
2023/01/13 16:30:33;;;;;;;3.10;2.20;;;;;;;-0.70;100.00;103739.02;1656854;87;21419;-85
2023/01/13 16:33:03;;;;;;;3.37;2.17;;;;;;;-0.78;100.00;103578.26;1657267;86;20936;-92
2023/01/13 16:35:34;;;;;;;4.80;2.62;;;;;;;-0.83;100.00;103504.63;1657255;87;20943;-94
2023/01/13 16:38:13;;;;;;;4.50;2.60;;;;;;;-0.94;100.00;103278.23;1655977;87;20993;-88
2023/01/13 16:44:15;;;;;;;5.53;2.80;;;;;;;-1.11;100.00;102998.70;1580442;91;20987;-87
2023/01/13 16:46:46;;;;;;;4.75;2.92;;;;;;;-1.34;85.80;102535.07;1559386;91;21068;-87
2023/01/13 16:49:16;;;;;;;8.50;3.33;;;;;;;-1.50;60.84;102213.48;1559374;91;20975;-88
2023/01/13 16:55:27;;;;;;;5.40;3.42;;;;;;;-1.74;24.21;101721.25;1573614;91;20982;-90
2023/01/13 16:57:56;;;;;;;5.75;3.45;;;;;;;-1.94;0.00;101319.23;1573617;91;21015;-86
2023/01/13 17:00:24;;;;;;;6.97;3.87;;;;;;;-2.03;0.00;101120.02;1584368;90;21071;-87
2023/01/13 17:03:12;;;;;;;;;;;;;;;;;;;;;
2023/01/13 17:05:39;;;;;;;6.08;3.35;;;;;;;-2.19;0.00;100792.69;1555672;91;21610;-88
2023/01/13 17:08:16;;;;;;;7.17;3.40;;;;;;;-2.28;0.00;100612.84;1524245;93;21551;-87
2023/01/13 17:10:47;;;;;;;7.30;3.52;;;;;;;-2.36;0.00;100441.95;1523945;94;21024;-86
2023/01/13 17:13:17;;;;;;;7.47;3.35;;;;;;;-2.41;0.00;100310.03;1493802;96;21046;-86